Time;durP1;ratioP1;P1;durP2;ratioP2;P2;SDS_P1;SDS_P2;PMS_P1;PMS_P2;Temp;Humidity;BMP_temperature;BMP_pressure;BME280_temperature;BME280_humidity;BME280_pressure;Samples;Min_cycle;Max_cycle;Signal;HPM_P1;HPM_P2
2021/03/28 00:02:09;;;;;;;22.60;3.20;;;4.20;99.90;;;;;;5100118;28;20036;-88
2021/03/28 00:05:07;;;;;;;30.42;3.75;;;4.30;99.90;;;;;;5107103;28;20479;-88
2021/03/28 00:07:43;;;;;;;19.35;3.38;;;4.30;99.90;;;;;;5111921;28;20044;-87
2021/03/28 00:10:23;;;;;;;21.67;3.60;;;4.30;99.90;;;;;;5100056;28;20388;-88
2021/03/28 00:13:01;;;;;;;17.33;3.13;;;4.30;99.90;;;;;;5109666;28;20035;-89
2021/03/28 00:15:35;;;;;;;16.65;2.88;;;4.30;99.90;;;;;;5093074;28;20482;-89
2021/03/28 00:18:22;;;;;;;24.70;3.80;;;4.40;99.90;;;;;;5092773;28;20036;-88
2021/03/28 00:20:52;;;;;;;20.98;3.90;;;4.30;99.90;;;;;;5092359;28;20108;-88
2021/03/28 00:23:24;;;;;;;16.63;3.55;;;4.30;99.90;;;;;;5092891;28;20039;-88
2021/03/28 00:25:57;;;;;;;16.42;3.38;;;4.20;99.90;;;;;;5110599;28;20050;-88
2021/03/28 00:28:36;;;;;;;19.85;3.47;;;4.20;99.90;;;;;;5111831;28;20123;-88
2021/03/28 00:31:28;;;;;;;26.42;3.90;;;4.20;99.90;;;;;;5111012;28;20039;-88
2021/03/28 00:34:03;;;;;;;22.17;3.60;;;4.20;99.90;;;;;;5110385;28;20479;-88
2021/03/28 00:36:35;;;;;;;17.42;3.50;;;4.30;99.90;;;;;;5111238;28;20048;-88
2021/03/28 00:39:09;;;;;;;21.75;5.07;;;4.30;99.90;;;;;;5091880;28;20044;-87
2021/03/28 00:41:46;;;;;;;14.07;3.58;;;4.30;99.90;;;;;;5093100;28;20510;-87
2021/03/28 00:44:21;;;;;;;21.40;4.00;;;4.30;99.90;;;;;;5092333;28;20054;-87
2021/03/28 00:46:52;;;;;;;18.70;4.05;;;4.20;99.90;;;;;;5109975;28;20073;-88
2021/03/28 00:49:42;;;;;;;20.83;3.35;;;4.20;99.90;;;;;;5092910;28;20055;-87
2021/03/28 00:52:24;;;;;;;29.50;3.83;;;4.30;99.90;;;;;;5098007;28;20055;-88
2021/03/28 00:54:53;;;;;;;21.27;3.70;;;4.20;99.90;;;;;;5091852;28;20036;-88
2021/03/28 00:57:38;;;;;;;20.83;3.60;;;4.30;99.90;;;;;;5092122;28;20043;-89
2021/03/28 01:00:11;;;;;;;30.23;4.15;;;4.30;99.90;;;;;;5090821;28;20134;-88
2021/03/28 01:03:05;;;;;;;23.58;4.05;;;4.30;99.90;;;;;;5090643;28;20054;-88
2021/03/28 01:05:51;;;;;;;19.08;2.92;;;4.30;99.90;;;;;;5092279;28;20043;-90
2021/03/28 01:08:25;;;;;;;23.10;4.15;;;4.30;99.90;;;;;;5110396;28;20046;-89
2021/03/28 01:11:03;;;;;;;24.65;4.32;;;4.30;99.90;;;;;;5090845;28;20032;-88
2021/03/28 01:13:53;;;;;;;32.63;5.07;;;4.40;99.90;;;;;;5109880;28;20047;-88
2021/03/28 01:16:55;;;;;;;17.20;3.55;;;4.40;99.90;;;;;;5091612;28;20044;-89
2021/03/28 01:19:40;;;;;;;15.73;3.85;;;4.40;99.90;;;;;;5109967;28;20032;-88
2021/03/28 01:22:26;;;;;;;26.08;3.90;;;4.40;99.90;;;;;;5073376;28;20131;-90
2021/03/28 01:24:52;;;;;;;17.80;3.42;;;4.40;99.90;;;;;;5104205;28;20126;-88
2021/03/28 01:27:45;;;;;;;19.75;3.58;;;4.50;99.90;;;;;;5109866;28;20431;-88
2021/03/28 01:30:14;;;;;;;35.92;5.35;;;4.50;99.90;;;;;;5090688;28;20112;-89
2021/03/28 01:32:48;;;;;;;29.63;4.13;;;4.60;99.90;;;;;;5092494;28;20058;-88
2021/03/28 01:35:49;;;;;;;27.98;4.00;;;4.60;99.90;;;;;;5091079;28;20225;-89
2021/03/28 01:38:42;;;;;;;21.63;4.40;;;4.70;99.90;;;;;;5057323;28;20136;-88
2021/03/28 01:41:18;;;;;;;23.95;5.03;;;4.70;99.90;;;;;;5089734;28;20093;-90
2021/03/28 01:44:09;;;;;;;20.17;4.28;;;4.70;99.90;;;;;;5109934;28;20047;-89
2021/03/28 01:46:54;;;;;;;23.95;4.47;;;4.80;99.90;;;;;;5091427;28;20561;-89
2021/03/28 01:49:38;;;;;;;21.70;3.47;;;4.80;99.90;;;;;;5091337;28;20100;-88
2021/03/28 01:52:36;;;;;;;25.02;4.22;;;4.90;99.90;;;;;;5108934;28;20062;-88
2021/03/28 01:55:29;;;;;;;22.23;4.00;;;4.80;99.90;;;;;;5090831;28;20051;-88
2021/03/28 01:58:12;;;;;;;22.70;4.40;;;4.90;99.90;;;;;;5099859;28;20070;-89
2021/03/28 02:00:57;;;;;;;23.90;3.47;;;4.90;99.90;;;;;;5109505;28;20391;-88
2021/03/28 02:03:39;;;;;;;20.17;4.07;;;4.90;99.90;;;;;;5100618;28;20032;-89
2021/03/28 02:06:35;;;;;;;24.02;4.88;;;4.90;99.90;;;;;;5091053;28;20046;-88
2021/03/28 02:09:13;;;;;;;24.20;4.63;;;4.90;99.90;;;;;;5090006;28;20040;-88
2021/03/28 02:12:14;;;;;;;25.17;4.30;;;5.00;99.90;;;;;;5109492;28;20048;-89
2021/03/28 02:14:46;;;;;;;;;;;5.00;99.90;;;;;;5078647;28;20077;-88
2021/03/28 02:17:30;;;;;;;25.67;4.30;;;5.00;99.90;;;;;;5090272;28;20434;-87
2021/03/28 02:20:10;;;;;;;27.80;5.35;;;5.00;99.90;;;;;;5097008;28;20040;-88
2021/03/28 02:22:43;;;;;;;22.63;4.88;;;5.00;99.90;;;;;;5092015;28;20054;-88
2021/03/28 02:25:30;;;;;;;28.20;5.00;;;5.10;99.90;;;;;;5108686;28;20044;-89
2021/03/28 02:28:27;;;;;;;31.75;3.85;;;5.00;99.90;;;;;;5109569;28;20044;-88
2021/03/28 02:31:49;;;;;;;20.35;3.88;;;5.00;99.90;;;;;;5109561;28;20066;-89
2021/03/28 02:34:36;;;;;;;27.17;5.65;;;5.10;99.90;;;;;;5005587;28;20088;-89
2021/03/28 02:37:19;;;;;;;19.42;3.90;;;5.10;99.90;;;;;;5074535;28;20058;-88
2021/03/28 02:39:54;;;;;;;29.05;4.35;;;5.10;99.90;;;;;;5091448;28;20049;-88
2021/03/28 02:42:42;;;;;;;35.03;5.07;;;5.10;99.90;;;;;;5108494;28;20196;-89
2021/03/28 02:45:21;;;;;;;30.52;4.57;;;5.20;99.90;;;;;;5107687;28;20040;-89
2021/03/28 02:48:18;;;;;;;15.48;3.90;;;5.10;99.90;;;;;;5091297;28;20874;-87
2021/03/28 02:50:59;;;;;;;25.40;4.43;;;5.20;99.90;;;;;;5098532;28;20054;-88
2021/03/28 02:53:46;;;;;;;25.02;4.18;;;5.20;99.90;;;;;;5108493;28;20043;-87
2021/03/28 02:56:49;;;;;;;26.13;4.88;;;5.20;99.90;;;;;;5108024;28;20074;-88
2021/03/28 02:59:30;;;;;;;30.60;5.20;;;5.20;99.90;;;;;;5097943;28;20039;-89
2021/03/28 03:02:20;;;;;;;24.42;4.25;;;5.20;99.90;;;;;;5109213;28;20036;-88
2021/03/28 03:05:05;;;;;;;23.17;4.55;;;5.20;99.90;;;;;;5113046;28;20043;-88
2021/03/28 03:08:06;;;;;;;28.48;4.93;;;5.10;99.90;;;;;;5082546;28;20044;-89
2021/03/28 03:10:38;;;;;;;34.97;5.13;;;5.10;99.90;;;;;;5094027;28;20043;-89
2021/03/28 03:13:20;;;;;;;30.63;4.53;;;5.10;99.90;;;;;;5100817;28;20036;-88
2021/03/28 03:16:03;;;;;;;18.45;4.10;;;5.10;99.90;;;;;;5077240;28;20437;-88
2021/03/28 03:18:38;;;;;;;25.50;4.82;;;5.10;99.90;;;;;;5093997;28;20054;-88
2021/03/28 03:21:15;;;;;;;28.27;5.57;;;5.10;99.90;;;;;;5112491;28;20097;-87
2021/03/28 03:24:19;;;;;;;23.42;4.70;;;5.00;99.90;;;;;;5094920;28;20043;-88
2021/03/28 03:27:00;;;;;;;23.20;4.53;;;4.90;99.90;;;;;;5087912;28;20395;-89
2021/03/28 03:29:29;;;;;;;19.90;4.05;;;4.90;99.90;;;;;;5111886;28;20040;-88
2021/03/28 03:32:19;;;;;;;21.17;3.83;;;4.80;99.90;;;;;;5112653;27;20050;-89
2021/03/28 03:35:04;;;;;;;22.92;4.18;;;4.90;99.90;;;;;;5094244;28;20036;-88
2021/03/28 03:37:36;;;;;;;25.45;4.88;;;4.90;99.90;;;;;;5112156;28;20066;-88
2021/03/28 03:40:36;;;;;;;27.80;4.53;;;4.90;99.90;;;;;;5111777;28;20035;-87
2021/03/28 03:43:23;;;;;;;28.90;4.80;;;4.90;99.90;;;;;;5093866;28;20048;-88
2021/03/28 03:46:01;;;;;;;22.45;4.03;;;4.90;99.90;;;;;;5112382;28;20050;-88
2021/03/28 03:49:04;;;;;;;33.33;4.78;;;5.00;99.90;;;;;;5111267;28;20039;-87
2021/03/28 03:51:48;;;;;;;20.95;4.72;;;5.00;99.90;;;;;;5092818;28;20088;-88
2021/03/28 03:54:46;;;;;;;17.98;3.83;;;5.10;99.90;;;;;;5093323;28;20050;-89
2021/03/28 03:57:23;;;;;;;31.98;5.25;;;5.20;99.90;;;;;;5093054;28;20054;-87
2021/03/28 03:59:54;;;;;;;22.70;4.60;;;5.20;99.90;;;;;;5105858;28;20509;-88
2021/03/28 04:03:02;;;;;;;21.38;4.50;;;5.20;99.90;;;;;;5111270;27;20114;-88
2021/03/28 04:05:53;;;;;;;18.48;3.78;;;5.30;99.90;;;;;;5092801;28;20642;-88
2021/03/28 04:08:31;;;;;;;22.88;4.50;;;5.30;99.90;;;;;;5092686;28;20457;-87
2021/03/28 04:11:32;;;;;;;22.00;4.82;;;5.30;99.90;;;;;;5089098;28;20039;-88
2021/03/28 04:14:35;;;;;;;22.50;3.75;;;5.40;99.90;;;;;;5088997;28;20050;-88
2021/03/28 04:17:31;;;;;;;20.80;3.80;;;5.40;99.90;;;;;;5093086;28;20047;-88
2021/03/28 04:20:15;;;;;;;28.75;4.43;;;5.40;99.90;;;;;;5081632;28;20429;-88
2021/03/28 04:23:16;;;;;;;18.80;4.45;;;5.30;99.90;;;;;;5111437;28;20070;-87
2021/03/28 04:26:00;;;;;;;20.00;4.70;;;5.20;99.90;;;;;;5067255;28;20074;-90
2021/03/28 04:28:47;;;;;;;22.00;4.00;;;5.20;99.90;;;;;;5080804;28;20040;-88
2021/03/28 04:31:28;;;;;;;26.48;4.68;;;5.10;99.90;;;;;;5110329;27;20044;-88
2021/03/28 04:34:19;;;;;;;20.90;4.82;;;5.10;99.90;;;;;;5111564;28;20047;-89
2021/03/28 04:37:14;;;;;;;21.30;4.15;;;5.10;99.90;;;;;;5083804;28;20058;-89
2021/03/28 04:40:14;;;;;;;26.65;4.57;;;5.00;99.90;;;;;;5110825;28;20368;-88
2021/03/28 04:42:52;;;;;;;26.92;5.25;;;5.00;99.90;;;;;;5092578;28;20461;-89
2021/03/28 04:45:34;;;;;;;22.30;6.22;;;5.10;99.90;;;;;;5096995;28;20040;-89
2021/03/28 04:48:12;;;;;;;28.88;4.07;;;5.10;99.90;;;;;;5092794;28;20039;-88
2021/03/28 04:50:50;;;;;;;27.52;5.10;;;5.20;99.90;;;;;;5092700;28;20043;-88
2021/03/28 04:53:41;;;;;;;21.65;4.28;;;5.30;99.90;;;;;;5109493;28;20511;-88
2021/03/28 04:56:37;;;;;;;22.40;4.85;;;5.20;99.90;;;;;;5092972;28;20042;-88
2021/03/28 04:59:11;;;;;;;21.52;4.38;;;5.30;99.90;;;;;;5093936;28;20035;-88
2021/03/28 05:02:15;;;;;;;29.10;5.20;;;5.30;99.90;;;;;;5105389;27;20054;-87
2021/03/28 05:05:15;;;;;;;19.35;4.43;;;5.10;99.90;;;;;;5092312;28;20380;-89
2021/03/28 05:08:05;;;;;;;21.37;4.93;;;5.10;99.90;;;;;;5081525;28;20040;-88
2021/03/28 05:11:03;;;;;;;19.27;4.22;;;5.10;99.90;;;;;;5091730;28;20307;-90
2021/03/28 05:14:05;;;;;;;27.40;4.57;;;5.10;99.90;;;;;;5091681;28;20047;-89
2021/03/28 05:16:50;;;;;;;23.25;4.05;;;5.10;99.90;;;;;;5097597;28;20055;-90
2021/03/28 05:19:16;;;;;;;29.50;5.00;;;5.10;99.90;;;;;;5109311;28;20069;-88
2021/03/28 05:21:53;;;;;;;20.40;4.75;;;5.20;99.90;;;;;;5092481;28;20043;-89
2021/03/28 05:24:40;;;;;;;25.00;4.57;;;5.20;99.90;;;;;;5109389;28;20153;-90
2021/03/28 05:27:31;;;;;;;27.35;4.85;;;5.20;99.90;;;;;;5092086;28;20051;-90
2021/03/28 05:30:31;;;;;;;29.73;4.85;;;5.20;99.90;;;;;;5078432;28;20031;-89
2021/03/28 05:33:19;;;;;;;19.38;4.63;;;5.20;99.90;;;;;;5092397;28;20062;-89
2021/03/28 05:36:09;;;;;;;25.67;5.35;;;5.20;99.90;;;;;;5092155;28;20044;-89
2021/03/28 05:39:12;;;;;;;20.58;5.13;;;5.20;99.90;;;;;;5092003;28;20096;-88
2021/03/28 05:42:19;;;;;;;23.02;4.47;;;5.20;99.90;;;;;;5107722;28;20316;-88
2021/03/28 05:45:09;;;;;;;17.00;4.28;;;5.20;99.90;;;;;;5063748;28;20059;-88
2021/03/28 05:47:46;;;;;;;21.05;4.53;;;5.20;99.90;;;;;;5109521;28;20261;-87
2021/03/28 05:50:30;;;;;;;21.25;4.22;;;5.30;99.90;;;;;;5090978;28;20031;-88
2021/03/28 05:53:01;;;;;;;26.60;4.88;;;5.30;99.90;;;;;;5091878;28;20050;-87
2021/03/28 05:55:45;;;;;;;24.52;4.70;;;5.40;99.90;;;;;;5077077;28;20376;-87
2021/03/28 05:58:21;;;;;;;24.08;4.35;;;5.40;99.90;;;;;;5091504;28;20051;-87
2021/03/28 06:01:25;;;;;;;26.88;3.88;;;5.40;99.90;;;;;;5092109;28;20046;-87
2021/03/28 06:04:44;;;;;;;15.48;4.10;;;5.30;99.90;;;;;;5109665;28;20042;-88
2021/03/28 06:07:25;;;;;;;31.88;6.05;;;5.30;99.90;;;;;;5109830;28;20053;-88
2021/03/28 06:10:15;;;;;;;21.20;5.30;;;5.20;99.90;;;;;;5109390;28;20070;-87
2021/03/28 06:13:00;;;;;;;;;;;5.30;99.90;;;;;;5091129;28;20078;-87
2021/03/28 06:15:40;;;;;;;23.55;4.80;;;5.30;99.90;;;;;;5090310;28;19923;-87
2021/03/28 06:18:12;;;;;;;21.13;4.45;;;5.30;99.90;;;;;;5091445;28;20035;-88
2021/03/28 06:20:58;;;;;;;20.27;4.60;;;5.40;99.90;;;;;;5108605;28;20062;-88
2021/03/28 06:23:49;;;;;;;16.95;4.25;;;5.40;99.90;;;;;;5100132;28;20942;-88
2021/03/28 06:26:45;;;;;;;23.17;4.63;;;5.40;99.90;;;;;;5091141;28;20456;-88
2021/03/28 06:29:31;;;;;;;20.80;4.47;;;5.50;99.90;;;;;;5109400;28;20047;-87
2021/03/28 06:32:22;;;;;;;18.38;4.20;;;5.60;99.90;;;;;;5109659;28;20062;-88
2021/03/28 06:35:00;;;;;;;17.77;4.33;;;5.60;99.90;;;;;;5109165;28;20038;-88
2021/03/28 06:37:54;;;;;;;26.15;5.07;;;5.70;99.90;;;;;;5108852;28;20046;-88
2021/03/28 06:41:05;;;;;;;24.35;5.65;;;5.80;99.90;;;;;;5102612;28;20052;-86
2021/03/28 06:44:01;;;;;;;27.65;4.25;;;5.90;99.90;;;;;;5112442;28;20087;-87
2021/03/28 06:46:51;;;;;;;23.95;4.90;;;6.10;99.90;;;;;;5094194;28;20051;-88
2021/03/28 06:49:58;;;;;;;19.70;5.25;;;6.20;99.90;;;;;;5094828;28;20043;-87
2021/03/28 06:52:51;;;;;;;16.33;4.80;;;6.20;99.90;;;;;;5112537;28;20036;-87
2021/03/28 06:55:33;;;;;;;16.55;4.97;;;6.30;99.90;;;;;;5094879;28;20496;-88
2021/03/28 06:58:21;;;;;;;16.00;4.10;;;6.30;99.90;;;;;;5095280;28;20066;-88
2021/03/28 07:01:10;;;;;;;32.45;5.03;;;6.40;99.90;;;;;;5096665;27;20036;-88
2021/03/28 07:03:48;;;;;;;24.30;5.43;;;6.50;99.90;;;;;;5094102;28;20143;-88
2021/03/28 07:06:33;;;;;;;24.20;5.88;;;6.60;99.90;;;;;;5103087;28;20784;-90
2021/03/28 07:09:11;;;;;;;20.60;3.92;;;6.70;99.90;;;;;;5093342;28;20052;-89
2021/03/28 07:12:02;;;;;;;14.20;4.00;;;7.00;99.90;;;;;;5097309;28;20039;-90
2021/03/28 07:14:46;;;;;;;18.25;5.47;;;7.10;99.90;;;;;;5085157;28;20372;-89
2021/03/28 07:17:59;;;;;;;24.75;4.63;;;7.30;99.90;;;;;;5088605;28;20138;-89
2021/03/28 07:20:43;;;;;;;18.40;3.75;;;7.40;99.90;;;;;;5032450;28;20392;-87
2021/03/28 07:23:21;;;;;;;17.98;3.28;;;7.50;99.90;;;;;;5082312;28;20039;-89
2021/03/28 07:25:49;;;;;;;13.13;3.85;;;7.70;99.90;;;;;;5095193;28;20040;-89
2021/03/28 07:28:40;;;;;;;18.70;4.18;;;7.80;99.90;;;;;;5094488;28;20399;-89
2021/03/28 07:31:33;;;;;;;18.90;3.45;;;7.90;99.90;;;;;;5082708;27;20036;-90
2021/03/28 07:34:24;;;;;;;15.63;3.67;;;8.00;99.90;;;;;;5110743;28;20040;-90
2021/03/28 07:37:13;;;;;;;13.82;3.65;;;8.20;99.90;;;;;;5103152;28;20381;-89
2021/03/28 07:40:17;;;;;;;14.18;3.25;;;8.20;99.90;;;;;;5092725;28;20169;-88
2021/03/28 07:42:57;;;;;;;13.93;3.58;;;8.30;99.90;;;;;;5088209;28;20075;-89
2021/03/28 07:45:53;;;;;;;14.95;3.08;;;8.40;99.90;;;;;;5090748;28;20089;-90
2021/03/28 07:48:46;;;;;;;20.45;4.85;;;8.40;99.90;;;;;;5109678;28;20066;-89
2021/03/28 07:51:49;;;;;;;13.20;2.65;;;8.50;99.90;;;;;;5086538;28;20113;-88
2021/03/28 07:54:46;;;;;;;11.85;3.28;;;8.60;99.90;;;;;;5090655;28;20036;-88
2021/03/28 07:57:24;;;;;;;12.95;3.33;;;8.60;99.90;;;;;;5087784;28;20902;-93
2021/03/28 08:00:37;;;;;;;25.75;3.75;;;8.70;99.90;;;;;;5092272;28;20036;-90
2021/03/28 08:03:11;;;;;;;15.77;3.00;;;8.80;99.90;;;;;;5073574;28;20419;-93
2021/03/28 08:05:49;;;;;;;12.07;2.72;;;8.90;99.90;;;;;;5101052;28;20063;-89
2021/03/28 08:08:52;;;;;;;17.25;2.88;;;8.90;99.90;;;;;;5093340;28;20486;-93
2021/03/28 08:11:46;;;;;;;9.82;2.53;;;9.00;99.90;;;;;;5101318;28;20405;-92
2021/03/28 08:14:37;;;;;;;12.50;2.75;;;9.10;99.90;;;;;;5111930;28;20051;-91
2021/03/28 08:17:21;;;;;;;;;;;9.10;99.90;;;;;;5103231;28;20059;-91
2021/03/28 08:20:21;;;;;;;9.90;2.85;;;9.20;99.90;;;;;;5112119;28;20254;-91
2021/03/28 08:23:37;;;;;;;12.88;3.00;;;9.20;99.90;;;;;;5092576;28;20031;-90
2021/03/28 08:26:40;;;;;;;16.70;3.15;;;9.30;99.90;;;;;;5023578;28;20048;-93
2021/03/28 08:29:43;;;;;;;8.13;2.70;;;9.40;99.90;;;;;;5029522;28;20073;-93
2021/03/28 08:32:19;;;;;;;19.73;5.25;;;9.60;99.90;;;;;;5094591;28;20044;-91
2021/03/28 08:35:00;;;;;;;17.92;4.15;;;9.80;99.90;;;;;;5108882;28;20027;-92
2021/03/28 08:38:02;;;;;;;11.93;2.80;;;9.90;99.90;;;;;;5096847;28;20048;-91
2021/03/28 08:40:40;;;;;;;21.63;3.13;;;10.20;99.90;;;;;;5080601;28;20055;-92
2021/03/28 08:43:22;;;;;;;17.15;3.33;;;10.30;99.90;;;;;;5105879;28;20126;-91
2021/03/28 08:46:10;;;;;;;15.98;3.03;;;10.30;99.90;;;;;;5100644;28;20043;-91
2021/03/28 08:48:48;;;;;;;10.20;2.20;;;10.30;99.90;;;;;;5107096;28;20041;-94
2021/03/28 08:51:16;;;;;;;19.52;2.97;;;10.40;99.90;;;;;;5111173;28;20040;-93
2021/03/28 08:54:33;;;;;;;14.98;3.30;;;10.50;99.90;;;;;;5094630;28;20403;-93
2021/03/28 08:57:41;;;;;;;13.23;2.38;;;10.50;99.90;;;;;;5070642;28;20044;-94
2021/03/28 09:00:27;;;;;;;15.68;3.28;;;10.60;99.90;;;;;;5090523;28;20544;-92
2021/03/28 09:03:11;;;;;;;11.00;2.38;;;10.60;99.90;;;;;;5107404;27;20031;-93
2021/03/28 09:05:51;;;;;;;10.63;2.13;;;10.80;99.90;;;;;;5090679;28;20067;-89
2021/03/28 09:08:23;;;;;;;14.02;2.35;;;10.90;99.90;;;;;;5095273;28;20475;-91
2021/03/28 09:10:49;;;;;;;11.30;2.38;;;11.00;99.90;;;;;;5095247;28;20039;-88
2021/03/28 09:13:39;;;;;;;17.52;2.38;;;11.10;99.90;;;;;;5092247;28;20065;-93
2021/03/28 09:16:42;;;;;;;12.25;2.92;;;11.20;99.90;;;;;;5108661;28;20055;-91
2021/03/28 09:19:36;;;;;;;12.65;2.40;;;11.30;99.90;;;;;;5092463;28;20028;-94
2021/03/28 09:22:13;;;;;;;9.85;1.90;;;11.40;99.90;;;;;;5091919;28;20118;-93
2021/03/28 09:25:00;;;;;;;11.73;2.20;;;11.40;99.90;;;;;;5110104;28;20452;-91
2021/03/28 09:27:44;;;;;;;15.70;2.40;;;11.50;99.90;;;;;;5110225;28;20043;-93
2021/03/28 09:30:31;;;;;;;14.93;2.47;;;11.50;99.90;;;;;;5092094;28;20046;-93
2021/03/28 09:33:21;;;;;;;10.15;2.08;;;11.50;99.90;;;;;;5083644;28;20035;-92
2021/03/28 09:36:13;;;;;;;14.43;2.72;;;11.70;99.90;;;;;;5082402;28;20038;-92
2021/03/28 09:39:00;;;;;;;9.23;2.03;;;11.80;99.90;;;;;;5102119;28;20043;-90
2021/03/28 09:41:47;;;;;;;14.80;2.88;;;11.90;99.90;;;;;;5080745;28;20122;-93
2021/03/28 09:45:06;;;;;;;13.02;2.58;;;11.90;99.90;;;;;;5093279;28;20039;-91
2021/03/28 09:47:42;;;;;;;7.32;1.73;;;11.90;99.90;;;;;;5101710;28;20517;-95
2021/03/28 09:50:27;;;;;;;8.40;2.42;;;12.00;99.90;;;;;;5110231;28;20792;-92
2021/03/28 09:53:15;;;;;;;8.70;1.85;;;12.10;99.90;;;;;;5076765;28;20511;-91
2021/03/28 09:55:54;;;;;;;9.75;1.50;;;12.10;99.90;;;;;;5085330;28;20055;-89
2021/03/28 09:58:40;;;;;;;6.30;1.80;;;12.10;99.90;;;;;;5095362;28;20028;-95
2021/03/28 10:01:09;;;;;;;8.10;2.00;;;12.10;99.90;;;;;;5096658;28;20088;-95
2021/03/28 10:03:58;;;;;;;10.77;2.45;;;12.00;99.90;;;;;;5102040;28;20039;-93
2021/03/28 10:06:25;;;;;;;7.15;1.52;;;11.90;99.90;;;;;;5089047;28;20047;-94
2021/03/28 10:08:58;;;;;;;9.73;2.45;;;11.90;99.90;;;;;;5105468;28;20039;-95
2021/03/28 10:11:33;;;;;;;6.18;2.15;;;12.00;99.90;;;;;;5088854;28;20537;-93
2021/03/28 10:14:30;;;;;;;9.00;2.60;;;11.90;99.90;;;;;;5097018;28;20040;-94
2021/03/28 10:17:28;;;;;;;13.57;2.80;;;11.90;99.90;;;;;;5090393;28;20064;-95
2021/03/28 10:20:21;;;;;;;8.32;2.28;;;11.90;99.90;;;;;;5098311;28;20408;-95
2021/03/28 10:22:53;;;;;;;6.85;1.95;;;11.80;99.90;;;;;;5058509;28;20079;-96
2021/03/28 10:25:58;;;;;;;11.82;2.65;;;11.80;99.90;;;;;;5096485;28;20048;-95
2021/03/28 10:28:57;;;;;;;15.93;2.60;;;11.70;99.90;;;;;;5106675;28;20038;-95
2021/03/28 10:31:23;;;;;;;12.95;2.53;;;11.60;99.90;;;;;;5093950;28;20036;-93
2021/03/28 10:33:52;;;;;;;11.75;2.40;;;11.60;99.90;;;;;;5112008;28;20035;-93
2021/03/28 10:36:32;;;;;;;11.52;2.78;;;11.60;99.90;;;;;;5093794;28;20043;-94
2021/03/28 10:39:28;;;;;;;12.65;2.58;;;11.60;99.90;;;;;;5093032;28;20390;-94
2021/03/28 10:42:18;;;;;;;11.07;2.10;;;11.70;99.90;;;;;;5105466;28;20189;-94
2021/03/28 10:44:47;;;;;;;8.43;1.80;;;11.80;99.90;;;;;;5093942;28;20067;-90
2021/03/28 10:47:31;;;;;;;12.35;1.88;;;11.80;99.90;;;;;;5086880;28;20032;-94
2021/03/28 10:50:34;;;;;;;8.18;2.05;;;11.70;99.90;;;;;;5097139;28;20067;-93
2021/03/28 10:53:55;;;;;;;11.60;2.42;;;11.70;99.90;;;;;;5082624;28;20052;-92
2021/03/28 10:56:48;;;;;;;10.07;2.17;;;11.70;99.90;;;;;;5021816;28;20041;-94
2021/03/28 10:59:23;;;;;;;10.15;2.30;;;11.50;99.90;;;;;;4993505;28;20104;-94
2021/03/28 11:02:17;;;;;;;14.30;2.63;;;11.30;99.90;;;;;;5091710;28;20059;-93
2021/03/28 11:05:34;;;;;;;10.60;2.80;;;11.20;99.90;;;;;;5100171;28;20055;-92
2021/03/28 11:08:29;;;;;;;10.02;2.22;;;11.00;99.90;;;;;;5047380;28;20135;-93
2021/03/28 11:11:25;;;;;;;9.88;2.25;;;10.90;99.90;;;;;;5104521;28;20068;-92
2021/03/28 11:14:21;;;;;;;11.05;2.70;;;10.80;99.90;;;;;;5087052;28;20111;-93
2021/03/28 11:16:55;;;;;;;12.48;2.28;;;10.60;99.90;;;;;;5088037;28;20067;-89
2021/03/28 11:19:59;;;;;;;14.48;2.58;;;10.40;99.90;;;;;;5079015;28;20475;-87
2021/03/28 11:23:04;;;;;;;12.45;2.67;;;10.30;99.90;;;;;;5093861;28;20142;-87
2021/03/28 11:25:32;;;;;;;11.38;3.22;;;10.30;99.90;;;;;;5082554;28;20047;-88
2021/03/28 11:30:14;;;;;;;19.50;3.17;;;10.40;99.90;;;;;;5119072;27;797279;-91
2021/03/28 11:33:08;;;;;;;11.45;2.30;;;10.20;99.90;;;;;;5118828;27;777594;-88
2021/03/28 11:37:48;;;;;;;19.98;3.55;;;11.00;99.90;;;;;;5121160;27;848390;-88
2021/03/28 11:40:17;;;;;;;12.10;2.95;;;10.10;99.90;;;;;;5097451;27;20489;-88
2021/03/28 11:42:47;;;;;;;22.13;2.95;;;10.10;99.90;;;;;;5127674;27;20119;-89
2021/03/28 11:45:38;;;;;;;17.35;2.80;;;10.10;99.90;;;;;;5108761;27;20520;-88
2021/03/28 11:48:28;;;;;;;13.93;2.95;;;10.00;99.90;;;;;;5106488;27;20058;-90
2021/03/28 11:50:59;;;;;;;11.68;2.83;;;9.90;99.90;;;;;;5127920;27;20066;-90
2021/03/28 11:53:24;;;;;;;20.65;3.22;;;9.90;99.90;;;;;;5144778;27;20577;-91
2021/03/28 11:55:58;;;;;;;15.27;3.90;;;9.80;99.90;;;;;;5110820;27;20068;-89
2021/03/28 11:58:35;;;;;;;16.13;2.92;;;9.70;99.90;;;;;;5147599;27;20072;-90
2021/03/28 12:01:01;;;;;;;9.95;2.63;;;9.70;99.90;;;;;;5117313;27;20058;-88
2021/03/28 12:03:30;;;;;;;14.70;3.40;;;9.60;99.90;;;;;;5088653;27;20090;-91
2021/03/28 12:06:18;;;;;;;11.40;2.20;;;9.60;99.90;;;;;;5129641;27;20035;-91
2021/03/28 12:08:46;;;;;;;16.67;2.83;;;9.60;99.90;;;;;;5146915;27;20084;-90
2021/03/28 12:11:50;;;;;;;16.20;3.08;;;9.50;99.90;;;;;;5104963;28;20641;-90
2021/03/28 12:14:24;;;;;;;19.00;3.28;;;9.50;99.90;;;;;;5143269;27;20529;-92
2021/03/28 12:17:08;;;;;;;16.33;3.33;;;9.50;99.90;;;;;;5128522;27;20043;-92
2021/03/28 12:19:40;;;;;;;13.95;2.88;;;9.50;99.90;;;;;;5128199;27;20046;-92
2021/03/28 12:22:17;;;;;;;13.13;3.38;;;9.40;99.90;;;;;;5146542;27;20039;-90
2021/03/28 12:24:45;;;;;;;15.68;3.50;;;9.50;99.90;;;;;;5122917;28;20067;-91
2021/03/28 12:27:29;;;;;;;16.98;2.40;;;9.50;99.90;;;;;;5119208;27;20128;-91
2021/03/28 12:29:55;;;;;;;15.77;2.55;;;9.50;99.90;;;;;;5113973;27;20034;-90
2021/03/28 12:32:58;;;;;;;16.42;2.88;;;9.60;99.90;;;;;;5127392;27;20050;-88
2021/03/28 12:35:33;;;;;;;14.68;3.03;;;9.60;99.90;;;;;;5117428;27;20039;-90
2021/03/28 12:38:24;;;;;;;11.48;2.90;;;9.50;99.90;;;;;;5112196;27;20057;-89
2021/03/28 12:41:10;;;;;;;18.67;3.53;;;9.60;99.90;;;;;;5101753;27;20062;-89
2021/03/28 12:43:38;;;;;;;16.83;2.97;;;9.50;99.90;;;;;;5132959;27;20122;-88
2021/03/28 12:46:26;;;;;;;13.70;2.95;;;9.40;99.90;;;;;;5133908;27;20039;-88
2021/03/28 12:49:10;;;;;;;17.70;3.83;;;9.40;99.90;;;;;;5085670;27;20054;-87
2021/03/28 12:51:43;;;;;;;17.58;3.22;;;9.40;99.90;;;;;;5117041;27;20654;-88
2021/03/28 12:54:33;;;;;;;16.80;3.20;;;9.40;99.90;;;;;;5100427;27;20046;-88
2021/03/28 12:57:04;;;;;;;21.38;3.97;;;9.40;99.90;;;;;;5079255;27;20240;-86
2021/03/28 12:59:37;;;;;;;15.77;2.75;;;9.30;99.90;;;;;;5098269;28;20437;-89
2021/03/28 13:02:13;;;;;;;21.40;3.55;;;9.30;99.90;;;;;;5118669;27;20428;-89
2021/03/28 13:04:39;;;;;;;19.55;2.80;;;9.40;99.90;;;;;;5102080;28;20044;-89
2021/03/28 13:07:06;;;;;;;14.88;3.80;;;9.40;99.90;;;;;;5111716;27;20050;-89
2021/03/28 13:09:36;;;;;;;20.73;3.45;;;9.40;99.90;;;;;;5113918;27;20040;-89
2021/03/28 13:12:08;;;;;;;19.20;3.20;;;9.40;99.90;;;;;;5093925;27;20035;-89
2021/03/28 13:14:42;;;;;;;13.02;3.58;;;9.40;99.90;;;;;;5093551;28;20400;-89
2021/03/28 13:17:13;;;;;;;23.80;3.30;;;9.40;99.90;;;;;;5123563;27;20107;-90
2021/03/28 13:19:43;;;;;;;25.17;4.05;;;9.30;99.90;;;;;;5131729;27;20505;-90
2021/03/28 13:22:37;;;;;;;24.45;4.05;;;9.30;99.90;;;;;;5118053;27;20150;-88
2021/03/28 13:25:29;;;;;;;23.52;3.72;;;9.30;99.90;;;;;;5098237;28;20042;-90
2021/03/28 13:28:10;;;;;;;17.40;3.20;;;9.30;99.90;;;;;;5099091;27;20041;-89
2021/03/28 13:30:40;;;;;;;23.55;3.92;;;9.30;99.90;;;;;;5102052;27;20076;-88
2021/03/28 13:33:40;;;;;;;14.93;2.95;;;9.40;99.90;;;;;;5119704;27;20110;-90
2021/03/28 13:36:35;;;;;;;16.48;3.72;;;9.40;99.90;;;;;;5098040;27;20043;-90
2021/03/28 13:39:07;;;;;;;12.15;2.85;;;9.40;99.90;;;;;;5102260;27;20055;-89
2021/03/28 13:41:36;;;;;;;18.58;4.03;;;9.40;99.90;;;;;;5095951;27;20049;-86
2021/03/28 13:44:18;;;;;;;15.68;2.92;;;9.40;99.90;;;;;;5122555;27;20044;-87
2021/03/28 13:46:59;;;;;;;19.80;3.03;;;9.40;99.90;;;;;;5112547;27;20501;-88
2021/03/28 13:49:49;;;;;;;22.27;3.92;;;9.40;99.90;;;;;;5127569;27;20111;-87
2021/03/28 13:52:27;;;;;;;25.88;5.20;;;9.40;99.90;;;;;;5096623;27;20064;-88
2021/03/28 13:55:23;;;;;;;15.63;3.70;;;9.40;99.90;;;;;;5112496;27;20072;-89
2021/03/28 13:57:49;;;;;;;17.27;3.30;;;9.30;99.90;;;;;;5080836;28;20518;-88
2021/03/28 14:00:18;;;;;;;17.10;3.28;;;9.40;99.90;;;;;;5106169;27;20519;-88
2021/03/28 14:02:45;;;;;;;18.08;3.10;;;9.30;99.90;;;;;;5105715;27;20043;-87
2021/03/28 14:05:14;;;;;;;19.95;3.70;;;9.30;99.90;;;;;;5127428;27;20039;-89
2021/03/28 14:07:44;;;;;;;18.98;3.90;;;9.20;99.90;;;;;;5128294;27;20035;-88
2021/03/28 14:10:28;;;;;;;20.17;3.83;;;9.20;99.90;;;;;;5127281;27;20039;-88
2021/03/28 14:13:12;;;;;;;17.77;3.33;;;9.20;99.90;;;;;;5113356;27;20106;-89
2021/03/28 14:15:54;;;;;;;17.30;4.30;;;9.30;99.90;;;;;;5109060;27;20050;-89
2021/03/28 14:18:28;;;;;;;12.20;2.60;;;9.30;99.90;;;;;;5127010;27;20092;-89
2021/03/28 14:21:12;;;;;;;19.83;3.88;;;9.30;99.90;;;;;;5109371;27;20043;-88
2021/03/28 14:23:47;;;;;;;22.40;3.22;;;9.30;99.90;;;;;;5107615;27;20490;-89